createdAt,value
2022-10-07T00:01:12.653Z,101819.28
2022-10-07T00:03:41.886Z,101817.84
2022-10-07T00:06:13.803Z,101818.84
2022-10-07T00:08:43.925Z,101817.41
2022-10-07T00:11:15.129Z,101809.63
2022-10-07T00:13:45.730Z,101804.06
2022-10-07T00:16:16.520Z,101804.22
2022-10-07T00:18:45.984Z,101804.81
2022-10-07T00:21:17.415Z,101804.81
2022-10-07T00:23:47.419Z,101800.91
2022-10-07T00:26:20.067Z,101801.06
2022-10-07T00:28:48.988Z,101792.69
2022-10-07T00:31:19.529Z,101799.19
2022-10-07T00:33:48.627Z,101790.75
2022-10-07T00:36:19.831Z,101789.13
2022-10-07T00:38:52.113Z,101787.47
2022-10-07T00:41:23.916Z,101788.88
2022-10-07T00:43:52.237Z,101781.91
2022-10-07T00:46:29.927Z,101784.56
2022-10-07T00:49:01.959Z,101785.16
2022-10-07T00:51:31.363Z,101781.88
2022-10-07T00:53:59.925Z,101777.75
2022-10-07T00:56:29.810Z,101775.09
2022-10-07T00:59:00.649Z,101759.69
2022-10-07T01:01:28.761Z,101769.72
2022-10-07T01:03:56.819Z,101770.72
2022-10-07T01:06:25.496Z,101762.31
2022-10-07T01:08:55.742Z,101748.38
2022-10-07T01:11:41.824Z,101755.53
2022-10-07T01:14:16.142Z,101748.75
2022-10-07T01:16:54.178Z,101740.13
2022-10-07T01:19:49.630Z,101741.97
2022-10-07T01:22:34.269Z,101754.44
2022-10-07T01:25:20.951Z,101748.72
2022-10-07T01:27:56.233Z,101741.94
2022-10-07T01:30:24.680Z,101743.28
2022-10-07T01:32:59.842Z,101747.97
2022-10-07T01:35:35.602Z,101745.50
2022-10-07T01:38:08.242Z,101739.75
2022-10-07T01:40:41.364Z,101734.81
2022-10-07T01:43:11.486Z,101734.19
2022-10-07T01:45:43.091Z,101734.34
2022-10-07T01:48:11.377Z,101726.78
2022-10-07T01:50:41.132Z,101723.31
2022-10-07T01:53:29.022Z,101720.44
2022-10-07T01:56:13.029Z,101719.63
2022-10-07T01:58:57.701Z,101709.00
2022-10-07T02:01:38.541Z,101709.00
2022-10-07T02:04:25.904Z,101705.31
2022-10-07T02:07:02.991Z,101701.03
2022-10-07T02:09:37.550Z,101704.69
2022-10-07T02:12:10.913Z,101691.41
2022-10-07T02:14:46.674Z,101681.81
2022-10-07T02:17:18.959Z,101690.75
2022-10-07T02:19:53.880Z,101680.34
2022-10-07T02:22:26.641Z,101678.69
2022-10-07T02:24:59.642Z,101675.22
2022-10-07T02:27:33.485Z,101668.44
2022-10-07T02:30:09.491Z,101666.78
2022-10-07T02:32:41.531Z,101657.38
2022-10-07T02:35:17.530Z,101650.41
2022-10-07T02:37:51.014Z,101652.25
2022-10-07T02:40:19.575Z,101650.81
2022-10-07T02:42:57.017Z,101645.50
2022-10-07T02:45:33.861Z,101645.88
2022-10-07T02:48:05.910Z,101638.28
2022-10-07T02:50:40.704Z,101638.66
2022-10-07T02:53:10.712Z,101636.38
2022-10-07T02:55:39.268Z,101635.94
2022-10-07T02:58:10.350Z,101634.69
2022-10-07T03:00:44.557Z,101631.38
2022-10-07T03:03:13.052Z,101619.50
2022-10-07T03:05:42.278Z,101622.34
2022-10-07T03:08:12.639Z,101615.75
2022-10-07T03:10:40.722Z,101624.72
2022-10-07T03:13:08.811Z,101622.28
2022-10-07T03:15:42.095Z,101615.50
2022-10-07T03:18:26.953Z,101615.69
2022-10-07T03:20:56.329Z,101622.22
2022-10-07T03:23:25.612Z,101613.59
2022-10-07T03:25:54.778Z,101607.66
2022-10-07T03:28:24.697Z,101599.03
2022-10-07T03:30:54.232Z,101598.44
2022-10-07T03:33:26.462Z,101602.09
2022-10-07T03:35:55.022Z,101597.16
2022-10-07T03:38:23.827Z,101602.66
2022-10-07T03:40:52.146Z,101596.69
2022-10-07T03:43:20.588Z,101601.19
2022-10-07T03:45:52.272Z,101591.38
2022-10-07T03:48:21.071Z,101594.44
2022-10-07T03:50:57.075Z,101592.59
2022-10-07T03:53:26.242Z,101586.66
2022-10-07T03:55:54.564Z,101585.19
2022-10-07T03:58:23.361Z,101586.41
2022-10-07T04:00:52.283Z,101580.44
2022-10-07T04:03:20.415Z,101576.53
2022-10-07T04:06:01.047Z,101577.34
2022-10-07T04:08:31.838Z,101576.09
2022-10-07T04:11:02.250Z,101570.94
2022-10-07T04:13:30.814Z,101569.13
2022-10-07T04:15:59.540Z,101572.59
2022-10-07T04:18:28.063Z,101564.63
2022-10-07T04:21:00.699Z,101567.56
2022-10-07T04:23:29.261Z,101566.72
2022-10-07T04:25:58.064Z,101562.28
2022-10-07T04:28:27.183Z,101559.22
2022-10-07T04:30:56.029Z,101552.91
2022-10-07T04:33:25.910Z,101552.72
2022-10-07T04:35:53.995Z,101554.19
2022-10-07T04:38:28.128Z,101550.34
2022-10-07T04:40:57.119Z,101548.50
2022-10-07T04:43:24.717Z,101551.97
2022-10-07T04:45:55.320Z,101549.94
2022-10-07T04:48:26.282Z,101547.28
2022-10-07T04:50:55.443Z,101542.81
2022-10-07T04:53:24.966Z,101544.47
2022-10-07T04:55:53.408Z,101542.81
2022-10-07T04:58:22.335Z,101540.97
2022-10-07T05:00:52.408Z,101538.31
2022-10-07T05:03:23.176Z,101532.00
2022-10-07T05:05:52.835Z,101536.31
2022-10-07T05:08:23.299Z,101538.97
2022-10-07T05:10:57.519Z,101535.09
2022-10-07T05:13:27.176Z,101539.59
2022-10-07T05:15:56.956Z,101529.78
2022-10-07T05:18:27.509Z,101533.09
2022-10-07T05:20:56.190Z,101527.78
2022-10-07T05:23:28.616Z,101527.38
2022-10-07T05:26:05.019Z,101520.06
2022-10-07T05:28:33.202Z,101530.69
2022-10-07T05:31:08.003Z,101524.97
2022-10-07T05:33:36.884Z,101521.72
2022-10-07T05:36:05.682Z,101519.06
2022-10-07T05:38:34.483Z,101524.97
2022-10-07T05:41:06.056Z,101520.53
2022-10-07T05:43:38.688Z,101527.47
2022-10-07T05:46:08.735Z,101524.81
2022-10-07T05:48:39.602Z,101522.97
2022-10-07T05:51:09.653Z,101531.56
2022-10-07T05:53:41.356Z,101521.75
2022-10-07T05:56:12.897Z,101515.25
2022-10-07T05:58:40.988Z,101514.44
2022-10-07T06:01:16.022Z,101519.75
2022-10-07T06:03:44.715Z,101518.72
2022-10-07T06:06:12.671Z,101519.56
2022-10-07T06:08:41.234Z,101516.91
2022-10-07T06:11:30.917Z,101511.22
2022-10-07T06:13:59.837Z,101512.19
2022-10-07T06:16:28.297Z,101518.53
2022-10-07T06:18:57.083Z,101510.56
2022-10-07T06:21:28.599Z,101509.56
2022-10-07T06:23:58.761Z,101510.41
2022-10-07T06:26:29.009Z,101510.41
2022-10-07T06:28:56.970Z,101507.91
2022-10-07T06:31:25.881Z,101514.03
2022-10-07T06:33:55.652Z,101511.38
2022-10-07T06:36:24.224Z,101507.91
2022-10-07T06:38:53.736Z,101502.59
2022-10-07T06:41:23.145Z,101511.22
2022-10-07T06:43:57.102Z,101512.44
2022-10-07T06:46:27.179Z,101510.44
2022-10-07T06:48:55.424Z,101508.41
2022-10-07T06:51:24.224Z,101509.66
2022-10-07T06:53:54.116Z,101509.91
2022-10-07T06:56:23.277Z,101503.22
2022-10-07T06:58:54.376Z,101504.88
2022-10-07T07:01:23.550Z,101515.94
2022-10-07T07:03:51.601Z,101509.84
2022-10-07T07:06:19.559Z,101516.06
2022-10-07T07:08:50.419Z,101516.09
2022-10-07T07:11:38.400Z,101515.31
2022-10-07T07:14:09.396Z,101521.50
2022-10-07T07:16:37.489Z,101520.94
2022-10-07T07:19:09.064Z,101522.81
2022-10-07T07:21:38.529Z,101518.34
2022-10-07T07:24:07.812Z,101518.38
2022-10-07T07:26:36.610Z,101517.38
2022-10-07T07:29:08.174Z,101517.84
2022-10-07T07:31:40.581Z,101517.69
2022-10-07T07:34:13.222Z,101516.28
2022-10-07T07:36:46.015Z,101518.16
2022-10-07T07:39:15.632Z,101508.78
2022-10-07T07:41:46.945Z,101517.00
2022-10-07T07:44:18.388Z,101515.34
2022-10-07T07:46:49.236Z,101512.31
2022-10-07T07:49:17.914Z,101514.19
2022-10-07T07:51:48.285Z,101510.91
2022-10-07T07:54:18.156Z,101509.88
2022-10-07T07:56:47.338Z,101505.16
2022-10-07T07:59:17.799Z,101497.16
2022-10-07T08:01:46.613Z,101506.13
2022-10-07T08:04:17.227Z,101498.69
2022-10-07T08:06:47.338Z,101497.88
2022-10-07T08:09:16.757Z,101497.22
2022-10-07T08:11:46.248Z,101488.75
2022-10-07T08:14:18.226Z,101489.34
2022-10-07T08:16:47.720Z,101502.00
2022-10-07T08:19:16.034Z,101488.38
2022-10-07T08:21:45.211Z,101481.75
2022-10-07T08:24:15.311Z,101480.69
2022-10-07T08:26:44.483Z,101477.75
2022-10-07T08:29:13.871Z,101480.16
2022-10-07T08:31:45.214Z,101490.59
2022-10-07T08:34:14.469Z,101479.84
2022-10-07T08:36:47.964Z,101488.44
2022-10-07T08:39:17.595Z,101479.31
2022-10-07T08:42:02.835Z,101476.16
2022-10-07T08:44:34.548Z,101470.97
2022-10-07T08:47:17.000Z,101468.81
2022-10-07T08:49:56.025Z,101467.94
2022-10-07T08:52:34.163Z,101457.16
2022-10-07T08:55:03.460Z,101462.47
2022-10-07T08:57:52.436Z,101457.84
2022-10-07T09:00:25.048Z,101454.50
2022-10-07T09:03:08.731Z,101446.38
2022-10-07T09:05:43.670Z,101445.28
2022-10-07T09:08:21.455Z,101442.50
2022-10-07T09:10:53.891Z,101438.13
2022-10-07T09:13:26.775Z,101431.91
2022-10-07T09:16:01.254Z,101426.47
2022-10-07T09:18:37.906Z,101439.19
2022-10-07T09:21:13.580Z,101430.47
2022-10-07T09:23:43.604Z,101430.00
2022-10-07T09:26:14.287Z,101426.88
2022-10-07T09:28:43.596Z,101419.66
2022-10-07T09:31:16.631Z,101415.25
2022-10-07T09:33:50.537Z,101416.19
2022-10-07T09:36:20.054Z,101421.09
2022-10-07T09:38:52.705Z,101426.34
2022-10-07T09:41:29.044Z,101418.91
2022-10-07T09:44:06.625Z,101415.53
2022-10-07T09:46:48.324Z,101412.16
2022-10-07T09:49:43.099Z,101417.44
2022-10-07T09:52:20.063Z,101414.28
2022-10-07T09:54:50.903Z,101419.19
2022-10-07T09:57:32.700Z,101408.59
2022-10-07T10:00:25.458Z,101405.22
2022-10-07T10:03:01.218Z,101397.28
2022-10-07T10:05:37.727Z,101400.13
2022-10-07T10:08:09.527Z,101394.06
2022-10-07T10:10:38.805Z,101392.31
2022-10-07T10:13:08.432Z,101386.25
2022-10-07T10:15:42.845Z,101381.56
2022-10-07T10:18:31.614Z,101390.31
2022-10-07T10:21:20.234Z,101377.59
2022-10-07T10:23:51.294Z,101379.56
2022-10-07T10:26:34.595Z,101363.34
2022-10-07T10:29:19.749Z,101360.56
2022-10-07T10:32:16.248Z,101357.16
2022-10-07T10:34:54.546Z,101360.50
2022-10-07T10:37:31.613Z,101360.03
2022-10-07T10:40:09.655Z,101347.75
2022-10-07T10:42:45.794Z,101346.25
2022-10-07T10:45:27.059Z,101352.75
2022-10-07T10:48:11.743Z,101341.31
2022-10-07T10:50:52.866Z,101337.69
2022-10-07T10:53:35.871Z,101329.50
2022-10-07T10:56:16.749Z,101327.13
2022-10-07T10:59:00.092Z,101327.47
2022-10-07T11:01:37.128Z,101325.34
2022-10-07T11:04:22.273Z,101324.41
2022-10-07T11:06:56.731Z,101320.66
2022-10-07T11:09:35.475Z,101313.97
2022-10-07T11:12:07.797Z,101311.06
2022-10-07T11:14:49.281Z,101305.19
2022-10-07T11:17:20.005Z,101296.59
2022-10-07T11:19:58.893Z,101290.16
2022-10-07T11:22:35.744Z,101287.56
2022-10-07T11:25:16.777Z,101284.88
2022-10-07T11:27:48.579Z,101277.38
2022-10-07T11:30:20.885Z,101277.38
2022-10-07T11:32:56.666Z,101273.41
2022-10-07T11:35:32.029Z,101267.78
2022-10-07T11:38:03.703Z,101260.88
2022-10-07T11:40:40.206Z,101264.69
2022-10-07T11:43:15.822Z,101269.00
2022-10-07T11:45:52.910Z,101256.97
2022-10-07T11:48:33.153Z,101244.66
2022-10-07T11:51:05.931Z,101239.78
2022-10-07T11:53:39.517Z,101235.22
2022-10-07T11:56:24.005Z,101227.72
2022-10-07T11:59:00.987Z,101225.63
2022-10-07T12:01:48.913Z,101220.00
2022-10-07T12:04:27.622Z,101213.81
2022-10-07T12:07:34.224Z,101203.38
2022-10-07T12:10:36.630Z,101204.19
2022-10-07T12:13:41.892Z,101208.50
2022-10-07T12:16:55.211Z,101198.84
2022-10-07T12:19:24.404Z,101190.78
2022-10-07T12:22:19.493Z,101180.59
2022-10-07T12:25:11.559Z,101183.25
2022-10-07T12:27:48.024Z,101172.03
2022-10-07T12:30:42.987Z,101166.66
2022-10-07T12:33:27.624Z,101159.16
2022-10-07T12:35:57.649Z,101152.72
2022-10-07T12:38:29.362Z,101141.75
2022-10-07T12:41:32.368Z,101132.88
2022-10-07T12:44:15.771Z,101134.22
2022-10-07T12:46:48.280Z,101126.44
2022-10-07T12:49:23.319Z,101133.16
2022-10-07T12:51:55.871Z,101126.44
2022-10-07T12:54:32.599Z,101108.88
2022-10-07T12:57:04.496Z,101116.22
2022-10-07T12:59:49.992Z,101114.94
2022-10-07T13:02:51.770Z,101114.13
2022-10-07T13:06:14.334Z,101119.72
2022-10-07T13:09:28.501Z,101107.69
2022-10-07T13:12:13.388Z,101095.09
2022-10-07T13:14:54.195Z,101100.22
2022-10-07T13:17:37.048Z,101092.94
2022-10-07T13:20:18.786Z,101100.78
2022-10-07T13:22:49.873Z,101098.91
2022-10-07T13:25:22.393Z,101083.59
2022-10-07T13:27:55.278Z,101080.66
2022-10-07T13:30:41.650Z,101074.72
2022-10-07T13:33:32.844Z,101070.38
2022-10-07T13:36:13.279Z,101069.59
2022-10-07T13:38:42.084Z,101069.84
2022-10-07T13:41:26.973Z,101071.22
2022-10-07T13:44:00.218Z,101068.47
2022-10-07T13:46:33.326Z,101064.13
2022-10-07T13:49:04.307Z,101059.81
2022-10-07T13:51:37.212Z,101061.97
2022-10-07T13:54:08.169Z,101058.69
2022-10-07T13:56:42.599Z,101052.50
2022-10-07T13:59:18.821Z,101051.72
2022-10-07T14:01:52.830Z,101050.09
2022-10-07T14:04:27.640Z,101052.78
2022-10-07T14:07:00.607Z,101049.78
2022-10-07T14:09:39.003Z,101043.09
2022-10-07T14:12:12.841Z,101039.84
2022-10-07T14:14:44.532Z,101038.22
2022-10-07T14:17:24.982Z,101031.78
2022-10-07T14:19:57.255Z,101025.28
2022-10-07T14:22:33.483Z,101026.66
2022-10-07T14:25:05.563Z,101019.09
2022-10-07T14:27:55.461Z,101025.28
2022-10-07T14:30:56.381Z,101014.81
2022-10-07T14:34:01.476Z,101019.09
2022-10-07T14:36:30.660Z,101014.00
2022-10-07T14:39:00.027Z,101003.50
2022-10-07T14:41:30.747Z,100998.94
2022-10-07T14:44:00.641Z,101001.06
2022-10-07T14:46:30.524Z,100996.75
2022-10-07T14:49:02.086Z,100995.94
2022-10-07T14:51:31.486Z,100989.22
2022-10-07T14:54:06.196Z,100990.25
2022-10-07T14:56:37.724Z,100983.28
2022-10-07T14:59:08.915Z,100980.53
2022-10-07T15:01:37.598Z,100988.59
2022-10-07T15:04:08.317Z,100980.81
2022-10-07T15:06:37.736Z,100975.16
2022-10-07T15:09:06.795Z,100974.63
2022-10-07T15:11:36.292Z,100965.44
2022-10-07T15:14:05.211Z,100964.63
2022-10-07T15:16:33.790Z,100965.44
2022-10-07T15:19:03.539Z,100960.06
2022-10-07T15:21:34.638Z,100968.13
2022-10-07T15:24:03.540Z,100970.00
2022-10-07T15:26:31.989Z,100956.84
2022-10-07T15:29:02.712Z,100961.91
2022-10-07T15:31:31.822Z,100952.47
2022-10-07T15:34:00.588Z,100942.25
2022-10-07T15:36:31.146Z,100947.59
2022-10-07T15:39:02.301Z,100949.72
2022-10-07T15:41:34.534Z,100941.94
2022-10-07T15:44:05.951Z,100936.25
2022-10-07T15:46:35.686Z,100939.50
2022-10-07T15:49:05.675Z,100940.00
2022-10-07T15:51:37.161Z,100934.88
2022-10-07T15:54:08.376Z,100935.69
2022-10-07T15:56:37.772Z,100935.16
2022-10-07T15:59:06.699Z,100935.63
2022-10-07T16:01:35.309Z,100935.09
2022-10-07T16:04:06.131Z,100938.25
2022-10-07T16:06:37.074Z,100938.75
2022-10-07T16:09:08.493Z,100943.00
2022-10-07T16:11:37.325Z,100943.50
2022-10-07T16:14:06.129Z,100935.38
2022-10-07T16:16:35.866Z,100942.03
2022-10-07T16:19:05.319Z,100933.09
2022-10-07T16:21:36.474Z,100933.63
2022-10-07T16:24:09.890Z,100923.38
2022-10-07T16:26:39.350Z,100923.06
2022-10-07T16:29:28.076Z,100926.00
2022-10-07T16:31:59.256Z,100923.25
2022-10-07T16:34:29.274Z,100928.28
2022-10-07T16:36:59.510Z,100920.50
2022-10-07T16:39:29.752Z,100921.56
2022-10-07T16:42:00.369Z,100928.22
2022-10-07T16:44:29.894Z,100916.94
2022-10-07T16:46:59.560Z,100919.88
2022-10-07T16:49:30.898Z,100923.59
2022-10-07T16:52:00.484Z,100924.13
2022-10-07T16:54:32.435Z,100927.03
2022-10-07T16:57:02.212Z,100922.44
2022-10-07T16:59:31.477Z,100925.59
2022-10-07T17:02:02.881Z,100924.47
2022-10-07T17:04:32.216Z,100924.13
2022-10-07T17:07:01.103Z,100918.47
2022-10-07T17:09:31.474Z,100920.00
2022-10-07T17:12:00.743Z,100913.78
2022-10-07T17:14:31.826Z,100919.88
2022-10-07T17:17:01.756Z,100911.75
2022-10-07T17:19:38.960Z,100921.88
2022-10-07T17:22:08.191Z,100928.19
2022-10-07T17:24:38.328Z,100926.25
2022-10-07T17:27:10.956Z,100933.38
2022-10-07T17:29:39.694Z,100927.94
2022-10-07T17:32:10.135Z,100928.66
2022-10-07T17:34:41.971Z,100926.72
2022-10-07T17:37:15.284Z,100923.16
2022-10-07T17:39:45.476Z,100923.88
2022-10-07T17:42:13.981Z,100925.66
2022-10-07T17:44:44.105Z,100927.19
2022-10-07T17:47:12.580Z,100925.72
2022-10-07T17:49:41.348Z,100926.69
2022-10-07T17:52:10.499Z,100936.25
2022-10-07T17:54:39.939Z,100938.81
2022-10-07T17:57:10.505Z,100926.97
2022-10-07T17:59:40.385Z,100932.22
2022-10-07T18:02:10.864Z,100932.13
2022-10-07T18:04:40.221Z,100937.38
2022-10-07T18:07:09.316Z,100936.19
2022-10-07T18:09:39.943Z,100943.06
2022-10-07T18:12:27.554Z,100938.22
2022-10-07T18:15:13.043Z,100930.53
2022-10-07T18:17:41.839Z,100928.13
2022-10-07T18:20:15.010Z,100926.16
2022-10-07T18:22:45.323Z,100923.13
2022-10-07T18:25:13.675Z,100915.81
2022-10-07T18:27:44.138Z,100907.47
2022-10-07T18:30:13.539Z,100917.00
2022-10-07T18:32:41.884Z,100912.13
2022-10-07T18:35:11.380Z,100913.88
2022-10-07T18:37:39.586Z,100912.25
2022-10-07T18:40:09.599Z,100915.97
2022-10-07T18:42:38.874Z,100912.97
2022-10-07T18:45:10.425Z,100915.88
2022-10-07T18:47:39.242Z,100913.66
2022-10-07T18:50:08.889Z,100912.84
2022-10-07T18:52:37.324Z,100916.56
2022-10-07T18:55:06.719Z,100913.31
2022-10-07T18:57:35.635Z,100918.91
2022-10-07T19:00:04.191Z,100915.66
2022-10-07T19:02:34.454Z,100916.47
2022-10-07T19:05:02.774Z,100919.34
2022-10-07T19:07:31.797Z,100917.97
2022-10-07T19:10:00.903Z,100915.53
2022-10-07T19:12:46.828Z,100912.28
2022-10-07T19:15:16.212Z,100918.78
2022-10-07T19:17:47.536Z,100927.03
2022-10-07T19:20:19.116Z,100918.06
2022-10-07T19:22:48.035Z,100920.19
2022-10-07T19:25:34.216Z,100912.63
2022-10-07T19:28:03.452Z,100898.94
2022-10-07T19:30:32.327Z,100901.81
2022-10-07T19:33:02.939Z,100898.56
2022-10-07T19:35:33.501Z,100895.34
2022-10-07T19:38:04.828Z,100896.16
2022-10-07T19:40:35.314Z,100903.00
2022-10-07T19:43:06.642Z,100894.16
2022-10-07T19:45:35.957Z,100892.97
2022-10-07T19:48:13.121Z,100887.63
2022-10-07T19:50:47.471Z,100890.53
2022-10-07T19:53:17.203Z,100895.06
2022-10-07T19:55:47.211Z,100891.00
2022-10-07T19:58:17.442Z,100900.63
2022-10-07T20:00:46.484Z,100891.59
2022-10-07T20:03:17.687Z,100893.44
2022-10-07T20:05:46.867Z,100901.44
2022-10-07T20:08:18.559Z,100899.00
2022-10-07T20:10:47.351Z,100893.91
2022-10-07T20:13:18.443Z,100895.16
2022-10-07T20:15:48.228Z,100899.13
2022-10-07T20:18:19.666Z,100895.66
2022-10-07T20:20:49.626Z,100892.63
2022-10-07T20:23:18.789Z,100890.41
2022-10-07T20:25:47.583Z,100897.59
2022-10-07T20:28:16.606Z,100903.19
2022-10-07T20:30:46.648Z,100892.94
2022-10-07T20:33:15.790Z,100892.75
2022-10-07T20:35:47.624Z,100890.06
2022-10-07T20:38:16.530Z,100887.59
2022-10-07T20:41:14.718Z,100886.00
2022-10-07T20:43:43.887Z,100892.94
2022-10-07T20:46:13.598Z,100885.19
2022-10-07T20:48:45.619Z,100881.94
2022-10-07T20:51:17.859Z,100878.22
2022-10-07T20:53:50.135Z,100881.94
2022-10-07T20:56:20.385Z,100877.84
2022-10-07T20:58:49.442Z,100887.72
2022-10-07T21:01:18.633Z,100892.25
2022-10-07T21:03:47.383Z,100886.56
2022-10-07T21:06:19.460Z,100893.50
2022-10-07T21:08:48.581Z,100886.78
2022-10-07T21:11:18.481Z,100881.09
2022-10-07T21:13:47.877Z,100876.81
2022-10-07T21:16:21.623Z,100877.84
2022-10-07T21:18:50.884Z,100871.91
2022-10-07T21:21:23.305Z,100877.50
2022-10-07T21:23:53.185Z,100869.13
2022-10-07T21:26:24.017Z,100877.59
2022-10-07T21:28:53.176Z,100865.53
2022-10-07T21:31:24.011Z,100868.44
2022-10-07T21:33:54.128Z,100864.13
2022-10-07T21:36:26.430Z,100860.66
2022-10-07T21:39:00.008Z,100856.34
2022-10-07T21:41:33.530Z,100863.78
2022-10-07T21:44:03.385Z,100863.19
2022-10-07T21:46:35.786Z,100860.75
2022-10-07T21:49:06.382Z,100852.41
2022-10-07T21:51:37.852Z,100859.13
2022-10-07T21:54:07.337Z,100858.75
2022-10-07T21:56:37.472Z,100860.84
2022-10-07T21:59:07.106Z,100860.84
2022-10-07T22:01:36.943Z,100858.41
2022-10-07T22:04:07.600Z,100862.13
2022-10-07T22:06:55.249Z,100852.28
2022-10-07T22:09:24.633Z,100854.34
2022-10-07T22:11:53.552Z,100859.09
2022-10-07T22:14:24.049Z,100850.50
2022-10-07T22:16:53.488Z,100850.97
2022-10-07T22:19:24.120Z,100841.34
2022-10-07T22:21:55.030Z,100840.50
2022-10-07T22:24:24.774Z,100844.47
2022-10-07T22:26:53.359Z,100839.56
2022-10-07T22:29:23.979Z,100837.38
2022-10-07T22:31:53.811Z,100834.72
2022-10-07T22:34:43.619Z,100840.84
2022-10-07T22:37:14.241Z,100834.91
2022-10-07T22:39:43.503Z,100830.84
2022-10-07T22:42:12.657Z,100838.47
2022-10-07T22:44:42.550Z,100832.78
2022-10-07T22:47:12.432Z,100832.19
2022-10-07T22:49:42.232Z,100831.81
2022-10-07T22:52:11.722Z,100833.09
2022-10-07T22:54:43.541Z,100834.97
2022-10-07T22:57:12.694Z,100833.53
2022-10-07T22:59:41.867Z,100834.00
2022-10-07T23:02:10.806Z,100835.03
2022-10-07T23:04:40.530Z,100834.44
2022-10-07T23:07:09.203Z,100838.16
2022-10-07T23:09:38.846Z,100832.22
2022-10-07T23:12:09.455Z,100835.94
2022-10-07T23:14:38.844Z,100835.34
2022-10-07T23:17:08.130Z,100829.22
2022-10-07T23:19:36.822Z,100826.75
2022-10-07T23:22:06.490Z,100820.63
2022-10-07T23:24:35.884Z,100828.59
2022-10-07T23:27:05.378Z,100827.81
2022-10-07T23:29:35.382Z,100824.31
2022-10-07T23:32:04.930Z,100821.91
2022-10-07T23:34:34.317Z,100817.38
2022-10-07T23:37:03.128Z,100824.56
2022-10-07T23:39:32.158Z,100822.47
2022-10-07T23:42:01.818Z,100821.41
2022-10-07T23:44:31.563Z,100819.81
2022-10-07T23:47:02.053Z,100816.69
2022-10-07T23:49:31.916Z,100807.09
2022-10-07T23:52:01.814Z,100808.22
2022-10-07T23:54:30.514Z,100805.81
2022-10-07T23:57:00.254Z,100810.91
2022-10-07T23:59:29.684Z,100809.88
